createdAt,value
2019-04-29T00:01:08.420Z,32.08
2019-04-29T00:03:47.509Z,32.13
2019-04-29T00:06:25.684Z,32.29
2019-04-29T00:09:06.876Z,32.40
2019-04-29T00:11:46.528Z,32.76
2019-04-29T00:14:27.739Z,32.73
2019-04-29T00:17:16.634Z,32.91
2019-04-29T00:20:22.549Z,33.06
2019-04-29T00:23:00.423Z,32.74
2019-04-29T00:25:39.368Z,32.32
2019-04-29T00:28:18.553Z,32.53
2019-04-29T00:30:56.597Z,32.47
2019-04-29T00:33:34.651Z,32.37
2019-04-29T00:36:13.700Z,33.05
2019-04-29T00:39:08.298Z,33.33
2019-04-29T00:42:09.835Z,33.10
2019-04-29T00:44:47.219Z,32.93
2019-04-29T00:47:25.227Z,32.50
2019-04-29T00:50:02.792Z,32.29
2019-04-29T00:52:41.037Z,32.45
2019-04-29T00:55:21.657Z,32.03
2019-04-29T00:58:00.429Z,32.26
2019-04-29T01:00:40.523Z,32.39
2019-04-29T01:03:19.781Z,32.44
2019-04-29T01:05:56.965Z,32.50
2019-04-29T01:08:37.850Z,33.27
2019-04-29T01:11:14.992Z,33.74
2019-04-29T01:13:53.584Z,33.47
2019-04-29T01:16:30.177Z,33.64
2019-04-29T01:19:08.375Z,33.86
2019-04-29T01:21:45.803Z,33.91
2019-04-29T01:24:23.186Z,33.82
2019-04-29T01:27:21.688Z,34.10
2019-04-29T01:29:59.979Z,34.36
2019-04-29T01:32:37.927Z,33.95
2019-04-29T01:35:15.554Z,34.19
2019-04-29T01:37:53.806Z,34.97
2019-04-29T01:41:01.076Z,34.69
2019-04-29T01:43:55.239Z,34.53
2019-04-29T01:46:35.036Z,34.58
2019-04-29T01:49:12.138Z,35.32
2019-04-29T01:51:50.706Z,35.47
2019-04-29T01:54:29.656Z,36.05
2019-04-29T01:57:07.439Z,36.08
2019-04-29T01:59:47.510Z,36.57
2019-04-29T02:02:25.208Z,36.88
2019-04-29T02:05:02.630Z,36.28
2019-04-29T02:07:40.350Z,36.21
2019-04-29T02:10:24.155Z,36.92
2019-04-29T02:13:02.782Z,36.80
2019-04-29T02:15:40.098Z,36.80
2019-04-29T02:18:19.101Z,36.21
2019-04-29T02:20:56.551Z,36.00
2019-04-29T02:23:50.264Z,35.51
2019-04-29T02:26:27.710Z,35.12
2019-04-29T02:29:06.521Z,35.51
2019-04-29T02:31:44.896Z,36.39
2019-04-29T02:34:22.447Z,35.91
2019-04-29T02:37:01.003Z,36.69
2019-04-29T02:39:45.266Z,37.11
2019-04-29T02:42:43.945Z,36.56
2019-04-29T02:45:30.129Z,36.94
2019-04-29T02:48:07.355Z,36.27
2019-04-29T02:50:46.284Z,36.19
2019-04-29T02:53:23.552Z,36.82
2019-04-29T02:56:02.130Z,36.89
2019-04-29T02:58:57.541Z,36.57
2019-04-29T03:01:50.898Z,37.07
2019-04-29T03:04:30.291Z,37.07
2019-04-29T03:07:08.877Z,37.27
2019-04-29T03:09:49.804Z,37.28
2019-04-29T03:12:27.612Z,37.28
2019-04-29T03:15:04.946Z,37.04
2019-04-29T03:17:43.792Z,37.20
2019-04-29T03:20:26.955Z,37.46
2019-04-29T03:23:10.974Z,37.07
2019-04-29T03:25:46.283Z,37.07
2019-04-29T03:28:24.400Z,38.80
2019-04-29T03:31:02.131Z,38.80
2019-04-29T03:33:39.374Z,37.83
2019-04-29T03:36:16.922Z,37.25
2019-04-29T03:38:55.105Z,37.31
2019-04-29T03:41:33.244Z,37.45
2019-04-29T03:44:10.940Z,37.83
2019-04-29T03:46:48.508Z,36.81
2019-04-29T03:49:26.853Z,36.81
2019-04-29T03:52:04.507Z,36.68
2019-04-29T03:54:43.116Z,36.70
2019-04-29T03:57:21.038Z,37.84
2019-04-29T03:59:58.790Z,38.53
2019-04-29T04:02:46.707Z,38.53
2019-04-29T04:05:54.352Z,37.43
2019-04-29T04:08:36.466Z,37.43
2019-04-29T04:11:15.065Z,36.93
2019-04-29T04:13:52.615Z,36.62
2019-04-29T04:16:48.386Z,37.21
2019-04-29T04:19:27.475Z,37.21
2019-04-29T04:22:04.961Z,38.11
2019-04-29T04:24:41.883Z,37.77
2019-04-29T04:27:20.365Z,37.26
2019-04-29T04:29:58.771Z,37.26
2019-04-29T04:32:38.231Z,38.24
2019-04-29T04:35:15.662Z,38.24
2019-04-29T04:37:53.463Z,37.03
2019-04-29T04:40:35.503Z,36.88
2019-04-29T04:43:14.531Z,37.36
2019-04-29T04:45:51.835Z,36.47
2019-04-29T04:48:29.071Z,36.26
2019-04-29T04:51:05.901Z,36.25
2019-04-29T04:53:43.416Z,36.56
2019-04-29T04:56:20.874Z,35.95
2019-04-29T04:58:59.820Z,37.05
2019-04-29T05:01:37.207Z,36.83
2019-04-29T05:04:15.670Z,36.32
2019-04-29T05:06:53.320Z,36.96
2019-04-29T05:09:30.925Z,36.45
2019-04-29T05:12:08.244Z,35.53
2019-04-29T05:14:46.448Z,35.82
2019-04-29T05:17:24.874Z,35.63
2019-04-29T05:20:02.558Z,35.56
2019-04-29T05:22:42.868Z,35.69
2019-04-29T05:25:21.101Z,35.66
2019-04-29T05:27:58.009Z,36.16
2019-04-29T05:30:36.792Z,35.69
2019-04-29T05:33:14.166Z,36.22
2019-04-29T05:36:06.971Z,36.20
2019-04-29T05:39:05.586Z,36.39
2019-04-29T05:41:42.995Z,36.19
2019-04-29T05:44:45.432Z,36.27
2019-04-29T05:47:52.308Z,36.13
2019-04-29T05:51:02.005Z,36.35
2019-04-29T05:53:47.808Z,35.97
2019-04-29T05:56:24.626Z,36.15
2019-04-29T05:59:03.409Z,35.67
2019-04-29T06:01:42.774Z,36.23
2019-04-29T06:04:21.696Z,35.88
2019-04-29T06:06:58.954Z,36.14
2019-04-29T06:09:37.619Z,35.87
2019-04-29T06:12:15.098Z,36.05
2019-04-29T06:14:56.191Z,36.16
2019-04-29T06:17:33.615Z,36.23
2019-04-29T06:20:17.448Z,35.81
2019-04-29T06:22:51.979Z,35.68
2019-04-29T06:25:29.385Z,36.08
2019-04-29T06:28:07.325Z,35.66
2019-04-29T06:30:50.238Z,36.63
2019-04-29T06:33:29.289Z,36.42
2019-04-29T06:36:05.136Z,36.18
2019-04-29T06:38:42.086Z,36.22
2019-04-29T06:41:19.737Z,36.35
2019-04-29T06:44:00.750Z,36.19
2019-04-29T06:46:37.498Z,35.99
2019-04-29T06:49:14.964Z,35.59
2019-04-29T06:51:53.401Z,36.23
2019-04-29T06:54:30.859Z,36.60
2019-04-29T06:57:08.769Z,36.63
2019-04-29T06:59:47.665Z,36.15
2019-04-29T07:02:26.864Z,36.31
2019-04-29T07:05:05.094Z,36.06
2019-04-29T07:07:42.841Z,36.36
2019-04-29T07:10:21.263Z,36.12
2019-04-29T07:13:00.749Z,36.43
2019-04-29T07:15:38.086Z,36.49
2019-04-29T07:18:15.566Z,36.09
2019-04-29T07:20:53.102Z,35.74
2019-04-29T07:23:33.396Z,35.93
2019-04-29T07:26:10.618Z,35.99
2019-04-29T07:28:48.688Z,36.25
2019-04-29T07:31:32.734Z,35.50
2019-04-29T07:34:08.551Z,35.53
2019-04-29T07:36:46.813Z,35.52
2019-04-29T07:39:26.688Z,35.51
2019-04-29T07:42:03.473Z,35.36
2019-04-29T07:44:52.734Z,35.65
2019-04-29T07:47:31.020Z,35.86
2019-04-29T07:50:09.130Z,35.69
2019-04-29T07:52:49.996Z,35.99
2019-04-29T07:55:30.935Z,35.78
2019-04-29T07:58:07.144Z,36.22
2019-04-29T08:00:48.811Z,36.29
2019-04-29T08:03:24.557Z,35.92
2019-04-29T08:06:03.223Z,35.58
2019-04-29T08:08:54.385Z,35.65
2019-04-29T08:11:21.675Z,35.52
2019-04-29T08:14:00.399Z,35.72
2019-04-29T08:16:38.743Z,35.17
2019-04-29T08:19:16.098Z,35.33
2019-04-29T08:21:53.450Z,35.33
2019-04-29T08:24:30.644Z,35.69
2019-04-29T08:27:08.614Z,35.71
2019-04-29T08:29:46.346Z,35.33
2019-04-29T08:32:24.506Z,35.31
2019-04-29T08:35:03.360Z,34.93
2019-04-29T08:37:41.814Z,35.13
2019-04-29T08:40:20.566Z,35.56
2019-04-29T08:43:20.471Z,35.23
2019-04-29T08:46:03.439Z,34.94
2019-04-29T08:48:42.204Z,35.11
2019-04-29T08:51:19.934Z,35.51
2019-04-29T08:53:57.801Z,35.93
2019-04-29T08:56:35.363Z,35.81
2019-04-29T08:59:14.389Z,35.16
2019-04-29T09:01:51.889Z,35.56
2019-04-29T09:04:33.346Z,35.35
2019-04-29T09:07:12.627Z,35.59
2019-04-29T09:09:48.486Z,35.51
2019-04-29T09:12:29.354Z,35.78
2019-04-29T09:15:06.133Z,35.75
2019-04-29T09:17:43.517Z,35.25
2019-04-29T09:20:22.321Z,35.32
2019-04-29T09:23:03.815Z,35.50
2019-04-29T09:26:14.526Z,35.32
2019-04-29T09:28:51.243Z,35.59
2019-04-29T09:31:29.479Z,35.17
2019-04-29T09:34:07.118Z,35.63
2019-04-29T09:36:48.400Z,35.18
2019-04-29T09:39:24.395Z,35.04
2019-04-29T09:42:31.033Z,35.28
2019-04-29T09:45:35.702Z,35.59
2019-04-29T09:48:13.069Z,35.06
2019-04-29T09:50:51.306Z,35.53
2019-04-29T09:53:28.947Z,35.16
2019-04-29T09:56:06.348Z,35.28
2019-04-29T09:58:44.276Z,35.46
2019-04-29T10:01:41.927Z,35.19
2019-04-29T10:04:36.112Z,35.28
2019-04-29T10:07:13.774Z,35.06
2019-04-29T10:09:57.341Z,35.13
2019-04-29T10:12:30.392Z,35.12
2019-04-29T10:15:10.290Z,35.47
2019-04-29T10:18:03.908Z,34.79
2019-04-29T10:20:50.008Z,34.71
2019-04-29T10:23:27.900Z,34.55
2019-04-29T10:26:05.880Z,34.61
2019-04-29T10:28:58.452Z,34.72
2019-04-29T10:31:36.381Z,35.04
2019-04-29T10:34:13.981Z,34.74
2019-04-29T10:36:52.616Z,34.49
2019-04-29T10:40:10.855Z,34.43
2019-04-29T10:42:51.969Z,34.36
2019-04-29T10:45:44.052Z,34.19
2019-04-29T10:48:27.190Z,34.29
2019-04-29T10:51:06.247Z,34.54
2019-04-29T10:53:46.631Z,34.88
2019-04-29T10:56:24.032Z,34.99
2019-04-29T10:59:04.516Z,34.74
2019-04-29T11:02:32.832Z,34.78
2019-04-29T11:05:36.580Z,34.59
2019-04-29T11:08:43.111Z,34.03
2019-04-29T11:11:26.922Z,33.88
2019-04-29T11:14:03.184Z,33.84
2019-04-29T11:16:46.461Z,34.02
2019-04-29T11:19:20.534Z,33.62
2019-04-29T11:22:02.242Z,33.63
2019-04-29T11:24:53.613Z,33.72
2019-04-29T11:27:35.067Z,33.39
2019-04-29T11:30:16.893Z,33.42
2019-04-29T11:33:11.770Z,33.55
2019-04-29T11:35:59.135Z,33.63
2019-04-29T11:38:38.464Z,33.66
2019-04-29T11:41:19.754Z,33.72
2019-04-29T11:43:55.812Z,33.51
2019-04-29T11:46:33.053Z,33.40
2019-04-29T11:49:11.358Z,33.09
2019-04-29T11:52:08.532Z,33.19
2019-04-29T11:54:31.523Z,33.41
2019-04-29T11:57:10.589Z,33.65
2019-04-29T11:59:58.075Z,33.20
2019-04-29T12:02:57.025Z,33.44
2019-04-29T12:05:44.790Z,33.45
2019-04-29T12:08:20.416Z,33.18
2019-04-29T12:11:07.263Z,33.20
2019-04-29T12:13:43.941Z,33.25
2019-04-29T12:16:32.560Z,33.23
2019-04-29T12:19:20.895Z,33.09
2019-04-29T12:21:57.389Z,33.12
2019-04-29T12:24:34.709Z,33.28
2019-04-29T12:27:14.729Z,33.32
2019-04-29T12:29:54.174Z,33.07
2019-04-29T12:32:43.597Z,33.14
2019-04-29T12:35:52.085Z,33.06
2019-04-29T12:38:48.754Z,32.92
2019-04-29T12:41:49.094Z,33.00
2019-04-29T12:44:35.058Z,33.00
2019-04-29T12:47:28.021Z,33.10
2019-04-29T12:50:08.001Z,32.81
2019-04-29T12:52:49.285Z,33.05
2019-04-29T12:55:53.640Z,33.24
2019-04-29T12:58:31.544Z,32.80
2019-04-29T13:01:23.713Z,32.98
2019-04-29T13:04:04.584Z,33.14
2019-04-29T13:07:18.891Z,33.01
2019-04-29T13:10:02.173Z,32.84
2019-04-29T13:12:39.905Z,32.74
2019-04-29T13:15:33.479Z,33.02
2019-04-29T13:18:23.088Z,32.92
2019-04-29T13:21:09.129Z,32.95
2019-04-29T13:23:55.013Z,33.10
2019-04-29T13:26:27.355Z,33.06
2019-04-29T13:29:01.828Z,32.72
2019-04-29T13:31:38.504Z,32.97
2019-04-29T13:34:24.075Z,32.87
2019-04-29T13:37:06.574Z,32.65
2019-04-29T13:39:39.947Z,32.63
2019-04-29T13:42:15.314Z,32.67
2019-04-29T13:45:05.068Z,32.72
2019-04-29T13:47:50.560Z,32.77
2019-04-29T13:50:40.499Z,32.80
2019-04-29T13:53:16.705Z,32.90
2019-04-29T13:56:10.478Z,33.01
2019-04-29T13:58:34.608Z,32.40
2019-04-29T14:01:23.656Z,32.52
2019-04-29T14:04:07.222Z,32.77
2019-04-29T14:06:56.487Z,32.64
2019-04-29T14:09:27.895Z,32.61
2019-04-29T14:12:46.446Z,32.63
2019-04-29T14:14:44.516Z,32.63
2019-04-29T14:17:26.463Z,32.65
2019-04-29T14:20:01.513Z,32.89
2019-04-29T14:22:40.089Z,32.45
2019-04-29T14:25:17.835Z,32.49
2019-04-29T14:27:56.700Z,32.41
2019-04-29T14:30:38.808Z,32.78
2019-04-29T14:33:12.595Z,32.56
2019-04-29T14:36:04.970Z,32.34
2019-04-29T14:38:42.557Z,32.37
2019-04-29T14:41:20.946Z,32.58
2019-04-29T14:44:11.567Z,32.32
2019-04-29T14:46:58.222Z,32.22
2019-04-29T14:49:41.271Z,32.43
2019-04-29T14:52:18.547Z,32.44
2019-04-29T14:54:56.884Z,32.38
2019-04-29T14:57:34.322Z,32.35
2019-04-29T15:00:24.594Z,32.42
2019-04-29T15:03:02.892Z,32.45
2019-04-29T15:05:40.465Z,32.24
2019-04-29T15:08:17.794Z,32.24
2019-04-29T15:10:55.524Z,32.33
2019-04-29T15:13:33.658Z,32.42
2019-04-29T15:16:19.329Z,32.27
2019-04-29T15:19:26.701Z,32.20
2019-04-29T15:22:08.610Z,32.36
2019-04-29T15:24:46.131Z,32.34
2019-04-29T15:27:22.793Z,32.30
2019-04-29T15:30:00.068Z,32.52
2019-04-29T15:32:40.273Z,32.30
2019-04-29T15:35:19.856Z,32.48
2019-04-29T15:37:56.833Z,32.34
2019-04-29T15:40:33.776Z,32.45
2019-04-29T15:43:12.927Z,32.57
2019-04-29T15:45:50.251Z,32.30
2019-04-29T15:48:28.090Z,32.52
2019-04-29T15:51:09.228Z,32.64
2019-04-29T15:53:44.792Z,32.47
2019-04-29T15:56:28.913Z,32.36
2019-04-29T15:59:08.021Z,32.45
2019-04-29T16:01:42.021Z,32.47
2019-04-29T16:04:27.843Z,32.54
2019-04-29T16:07:24.344Z,32.12
2019-04-29T16:10:20.464Z,32.42
2019-04-29T16:13:01.144Z,32.36
2019-04-29T16:15:38.900Z,32.22
2019-04-29T16:18:16.562Z,32.44
2019-04-29T16:20:54.291Z,32.39
2019-04-29T16:23:32.747Z,32.39
2019-04-29T16:26:11.461Z,32.28
2019-04-29T16:28:48.528Z,32.18
2019-04-29T16:31:25.861Z,32.35
2019-04-29T16:34:03.827Z,32.35
2019-04-29T16:36:49.132Z,32.29
2019-04-29T16:39:22.843Z,32.45
2019-04-29T16:42:27.709Z,32.34
2019-04-29T16:45:06.129Z,32.34
2019-04-29T16:47:47.390Z,32.34
2019-04-29T16:50:24.177Z,32.18
2019-04-29T16:53:01.473Z,32.32
2019-04-29T16:55:43.011Z,32.31
2019-04-29T16:58:18.863Z,32.24
2019-04-29T17:00:56.342Z,32.33
2019-04-29T17:03:33.778Z,32.39
2019-04-29T17:06:11.571Z,32.55
2019-04-29T17:09:24.172Z,32.48
2019-04-29T17:12:02.675Z,32.40
2019-04-29T17:15:02.293Z,32.00
2019-04-29T17:17:28.842Z,32.12
2019-04-29T17:20:02.726Z,32.22
2019-04-29T17:22:43.095Z,32.30
2019-04-29T17:25:20.451Z,32.12
2019-04-29T17:28:11.433Z,32.37
2019-04-29T17:34:01.248Z,32.32
2019-04-29T17:35:16.339Z,32.55
2019-04-29T17:36:39.463Z,32.07
2019-04-29T17:39:18.671Z,32.15
2019-04-29T17:41:57.003Z,32.11
2019-04-29T17:44:47.911Z,31.91
2019-04-29T17:47:54.120Z,32.11
2019-04-29T17:50:46.258Z,32.31
2019-04-29T17:53:35.482Z,32.21
2019-04-29T17:56:35.104Z,32.08
2019-04-29T17:59:31.701Z,32.15
2019-04-29T18:02:25.564Z,32.16
2019-04-29T18:05:26.906Z,31.96
2019-04-29T18:08:12.337Z,32.13
2019-04-29T18:10:55.595Z,32.29
2019-04-29T18:13:32.493Z,31.93
2019-04-29T18:16:17.924Z,32.14
2019-04-29T18:19:01.954Z,32.31
2019-04-29T18:21:57.202Z,32.32
2019-04-29T18:24:55.388Z,31.95
2019-04-29T18:27:36.736Z,32.05
2019-04-29T18:30:16.287Z,32.15
2019-04-29T18:32:52.839Z,31.91
2019-04-29T18:35:30.080Z,31.95
2019-04-29T18:38:12.024Z,31.98
2019-04-29T18:40:49.428Z,32.14
2019-04-29T18:43:28.552Z,31.93
2019-04-29T18:46:12.397Z,32.09
2019-04-29T18:48:46.536Z,32.25
2019-04-29T18:51:27.374Z,32.15
2019-04-29T18:54:03.272Z,31.73
2019-04-29T18:56:40.719Z,32.01
2019-04-29T18:59:21.442Z,32.07
2019-04-29T19:02:01.049Z,32.00
2019-04-29T19:04:58.473Z,31.87
2019-04-29T19:07:39.616Z,32.00
2019-04-29T19:10:18.599Z,32.17
2019-04-29T19:13:00.138Z,32.00
2019-04-29T19:15:39.927Z,32.12
2019-04-29T19:18:17.400Z,32.21
2019-04-29T19:20:56.971Z,32.21
2019-04-29T19:23:35.886Z,31.95
2019-04-29T19:26:18.169Z,31.88
2019-04-29T19:28:56.823Z,32.09
2019-04-29T19:31:36.968Z,31.99
2019-04-29T19:34:18.554Z,31.94
2019-04-29T19:36:55.683Z,32.08
2019-04-29T19:39:31.532Z,32.15
2019-04-29T19:42:09.882Z,31.79
2019-04-29T19:44:47.074Z,32.02
2019-04-29T19:47:28.129Z,32.12
2019-04-29T19:50:05.804Z,32.14
2019-04-29T19:52:45.444Z,31.87
2019-04-29T19:55:25.222Z,32.00
2019-04-29T19:58:04.423Z,32.15
2019-04-29T20:00:43.477Z,32.13
2019-04-29T20:03:25.172Z,32.07
2019-04-29T20:06:08.766Z,32.03
2019-04-29T20:08:54.236Z,32.03
2019-04-29T20:11:28.973Z,31.79
2019-04-29T20:14:08.367Z,31.94
2019-04-29T20:17:04.426Z,32.04
2019-04-29T20:20:05.513Z,32.09
2019-04-29T20:22:48.826Z,31.79
2019-04-29T20:25:30.297Z,32.08
2019-04-29T20:28:06.659Z,31.97
2019-04-29T20:30:43.078Z,31.91
2019-04-29T20:33:20.929Z,31.94
2019-04-29T20:36:02.348Z,32.10
2019-04-29T20:38:39.197Z,32.21
2019-04-29T20:41:21.009Z,31.97
2019-04-29T20:43:56.204Z,32.12
2019-04-29T20:46:44.895Z,32.08
2019-04-29T20:49:12.991Z,31.86
2019-04-29T20:51:55.759Z,31.84
2019-04-29T20:54:35.474Z,32.10
2019-04-29T20:57:20.401Z,32.10
2019-04-29T20:59:51.700Z,31.96
2019-04-29T21:02:34.731Z,31.88
2019-04-29T21:05:10.007Z,32.09
2019-04-29T21:07:49.214Z,32.03
2019-04-29T21:10:28.280Z,31.64
2019-04-29T21:13:20.349Z,31.92
2019-04-29T21:16:08.271Z,31.98
2019-04-29T21:18:52.952Z,31.89
2019-04-29T21:21:25.932Z,31.79
2019-04-29T21:24:06.461Z,32.07
2019-04-29T21:26:45.950Z,32.07
2019-04-29T21:29:25.565Z,31.80
2019-04-29T21:32:02.944Z,31.92
2019-04-29T21:34:49.629Z,31.97
2019-04-29T21:37:35.798Z,32.02
2019-04-29T21:40:38.271Z,31.62
2019-04-29T21:43:20.316Z,31.69
2019-04-29T21:45:55.786Z,31.87
2019-04-29T21:48:35.131Z,31.79
2019-04-29T21:51:13.410Z,31.74
2019-04-29T21:53:50.833Z,31.83
2019-04-29T21:56:29.016Z,31.90
2019-04-29T21:59:09.268Z,31.62
2019-04-29T22:01:46.380Z,31.88
2019-04-29T22:04:24.715Z,31.92
2019-04-29T22:07:04.883Z,31.79
2019-04-29T22:09:47.257Z,31.61
2019-04-29T22:12:21.475Z,31.91
2019-04-29T22:14:59.501Z,32.06
2019-04-29T22:17:37.687Z,31.87
2019-04-29T22:20:15.984Z,31.77
2019-04-29T22:22:55.863Z,31.92
2019-04-29T22:25:33.409Z,31.98
2019-04-29T22:28:15.990Z,31.87
2019-04-29T22:30:54.843Z,31.82
2019-04-29T22:33:36.981Z,31.96
2019-04-29T22:36:10.247Z,31.88
2019-04-29T22:38:51.979Z,31.69
2019-04-29T22:41:48.672Z,31.92
2019-04-29T22:44:27.097Z,31.95
2019-04-29T22:47:05.678Z,31.88
2019-04-29T22:49:43.489Z,31.87
2019-04-29T22:52:20.743Z,32.02
2019-04-29T22:55:01.675Z,32.08
2019-04-29T22:57:37.877Z,31.89
2019-04-29T23:00:19.153Z,31.97
2019-04-29T23:02:57.731Z,32.07
2019-04-29T23:05:37.810Z,32.01
2019-04-29T23:08:15.608Z,31.87
2019-04-29T23:10:52.961Z,32.02
2019-04-29T23:13:31.128Z,32.02
2019-04-29T23:16:09.265Z,31.91
2019-04-29T23:18:47.926Z,31.71
2019-04-29T23:21:49.693Z,32.01
2019-04-29T23:24:55.701Z,31.97
2019-04-29T23:27:36.060Z,31.75
2019-04-29T23:30:18.109Z,31.99
2019-04-29T23:32:56.093Z,32.08
2019-04-29T23:35:34.946Z,31.97
2019-04-29T23:38:12.988Z,32.05
2019-04-29T23:40:54.435Z,32.26
2019-04-29T23:43:29.666Z,32.27
2019-04-29T23:46:07.040Z,32.06
2019-04-29T23:48:46.490Z,32.28
2019-04-29T23:51:27.371Z,32.50
2019-04-29T23:54:07.976Z,32.58
2019-04-29T23:57:03.467Z,32.44
2019-04-29T23:59:48.831Z,32.57
